Time;durP1;ratioP1;P1;durP2;ratioP2;P2;SDS_P1;SDS_P2;PMS_P1;PMS_P2;Temp;Humidity;BMP_temperature;BMP_pressure;BME280_temperature;BME280_humidity;BME280_pressure;Samples;Min_cycle;Max_cycle;Signal;HPM_P1;HPM_P2
2023/08/11 00:01:43;;;;;;;4.17;3.80;;;23.40;53.80;;;;;;5012004;28;20235;-72
2023/08/11 00:04:08;;;;;;;4.10;3.70;;;23.30;53.70;;;;;;5011990;28;20267;-72
2023/08/11 00:06:34;;;;;;;4.67;3.53;;;23.30;53.70;;;;;;5011964;28;20169;-72
2023/08/11 00:09:00;;;;;;;3.37;3.10;;;23.30;53.80;;;;;;4994361;28;20184;-72
2023/08/11 00:11:26;;;;;;;3.67;3.07;;;23.30;53.70;;;;;;5011951;28;20168;-72
2023/08/11 00:13:51;;;;;;;3.93;3.30;;;23.30;53.70;;;;;;5012118;28;20994;-72
2023/08/11 00:16:18;;;;;;;3.87;3.47;;;23.30;53.70;;;;;;5011884;28;20169;-72
2023/08/11 00:18:44;;;;;;;4.57;3.60;;;23.30;53.80;;;;;;4994474;28;20787;-72
2023/08/11 00:21:09;;;;;;;3.33;3.03;;;23.30;53.70;;;;;;5011752;28;20539;-72
2023/08/11 00:23:39;;;;;;;2.90;2.40;;;23.30;53.70;;;;;;5012048;28;20269;-71
2023/08/11 00:26:05;;;;;;;3.37;3.07;;;23.30;53.70;;;;;;5011798;28;20185;-71
2023/08/11 00:28:31;;;;;;;3.73;3.37;;;23.30;53.70;;;;;;5011734;28;20411;-72
2023/08/11 00:30:57;;;;;;;3.27;2.97;;;23.30;53.70;;;;;;5012632;28;20446;-72
2023/08/11 00:33:23;;;;;;;3.60;3.30;;;23.30;53.70;;;;;;5015415;28;20192;-72
2023/08/11 00:35:49;;;;;;;4.00;3.10;;;23.30;53.70;;;;;;4998013;28;20256;-72
2023/08/11 00:38:14;;;;;;;3.43;3.13;;;23.30;53.70;;;;;;5015545;28;20227;-71
2023/08/11 00:40:40;;;;;;;2.90;2.60;;;23.30;53.70;;;;;;5015235;28;20208;-71
2023/08/11 00:43:05;;;;;;;3.60;3.30;;;23.30;53.70;;;;;;5015389;28;20664;-71
2023/08/11 00:45:31;;;;;;;3.10;2.80;;;23.40;53.80;;;;;;5015623;28;20176;-71
2023/08/11 00:47:57;;;;;;;3.13;2.93;;;23.40;53.80;;;;;;5015276;28;20223;-72
2023/08/11 00:50:23;;;;;;;3.13;2.83;;;23.30;53.70;;;;;;5015093;28;20195;-71
2023/08/11 00:52:50;;;;;;;3.33;3.03;;;23.30;53.70;;;;;;5015110;28;20322;-71
2023/08/11 00:55:18;;;;;;;3.37;3.07;;;23.30;53.70;;;;;;5015108;28;20962;-71
2023/08/11 00:57:45;;;;;;;4.77;3.97;;;23.30;53.70;;;;;;5015058;28;20411;-71
2023/08/11 01:00:13;;;;;;;3.93;3.20;;;23.30;53.70;;;;;;5014957;28;20807;-72
2023/08/11 01:02:42;;;;;;;3.70;2.90;;;23.30;53.70;;;;;;5014898;28;20407;-71
2023/08/11 01:05:09;;;;;;;3.93;3.33;;;23.40;53.80;;;;;;4997367;28;20415;-71
2023/08/11 01:07:43;;;;;;;3.30;3.00;;;23.30;53.70;;;;;;4997492;28;20426;-71
2023/08/11 01:10:34;;;;;;;3.60;3.30;;;23.30;53.70;;;;;;5014813;28;20430;-71
2023/08/11 01:13:13;;;;;;;3.20;2.90;;;23.30;53.80;;;;;;5014760;28;20458;-72
2023/08/11 01:15:43;;;;;;;3.30;3.00;;;23.30;53.70;;;;;;5014619;28;20400;-72
2023/08/11 01:18:11;;;;;;;3.10;2.67;;;23.30;53.80;;;;;;5014718;28;20510;-72
2023/08/11 01:20:37;;;;;;;3.30;3.00;;;23.30;53.80;;;;;;5014804;28;20442;-71
2023/08/11 01:23:06;;;;;;;3.30;3.00;;;23.30;53.80;;;;;;5014140;28;20446;-72
2023/08/11 01:25:32;;;;;;;2.90;2.70;;;23.30;53.80;;;;;;5013109;28;20411;-71
2023/08/11 01:28:00;;;;;;;3.03;2.73;;;23.30;53.80;;;;;;5014172;28;20419;-72
2023/08/11 01:30:27;;;;;;;3.70;2.73;;;23.30;53.80;;;;;;5014163;28;20431;-71
2023/08/11 01:32:53;;;;;;;3.20;2.90;;;23.30;53.80;;;;;;4980725;28;20517;-72
2023/08/11 01:35:22;;;;;;;2.57;2.37;;;23.30;53.80;;;;;;5014406;28;20411;-71
2023/08/11 01:37:48;;;;;;;2.87;2.67;;;23.30;53.80;;;;;;5014295;28;20180;-71
2023/08/11 01:40:14;;;;;;;3.43;3.10;;;23.30;53.80;;;;;;5013723;28;20454;-72
2023/08/11 01:42:42;;;;;;;3.67;3.33;;;23.30;53.80;;;;;;5013175;28;20595;-71
2023/08/11 01:45:09;;;;;;;2.97;2.77;;;23.30;53.80;;;;;;5013987;28;20421;-71
2023/08/11 01:47:41;;;;;;;2.97;2.60;;;23.30;53.80;;;;;;4994702;28;20408;-72
2023/08/11 01:50:09;;;;;;;2.53;2.33;;;23.30;53.70;;;;;;5012153;28;20427;-72
2023/08/11 01:52:40;;;;;;;3.27;2.97;;;23.30;53.80;;;;;;5012266;28;20422;-72
2023/08/11 01:55:13;;;;;;;3.87;2.63;;;23.30;53.80;;;;;;5011952;28;20446;-72
2023/08/11 01:57:39;;;;;;;3.13;2.83;;;23.30;53.80;;;;;;5013611;28;20481;-72
2023/08/11 02:00:24;;;;;;;2.70;2.50;;;23.30;53.80;;;;;;5013778;28;20978;-72
2023/08/11 02:02:50;;;;;;;2.97;2.67;;;23.30;53.80;;;;;;5013921;28;20425;-71
2023/08/11 02:05:15;;;;;;;2.43;2.13;;;23.30;53.80;;;;;;4996128;28;20419;-72
2023/08/11 02:07:42;;;;;;;3.70;3.00;;;23.30;53.80;;;;;;5013720;28;20180;-71
2023/08/11 02:10:09;;;;;;;3.07;2.77;;;23.30;53.80;;;;;;5013660;28;20200;-72
2023/08/11 02:12:39;;;;;;;3.27;2.97;;;23.30;53.80;;;;;;5013628;28;20426;-72
2023/08/11 02:15:05;;;;;;;3.23;2.93;;;23.30;53.80;;;;;;5013690;28;20494;-72
2023/08/11 02:17:31;;;;;;;2.87;2.43;;;23.30;53.80;;;;;;5013552;28;20411;-72
2023/08/11 02:19:59;;;;;;;2.90;2.60;;;23.30;53.80;;;;;;4995872;28;20442;-71
2023/08/11 02:22:25;;;;;;;2.97;2.67;;;23.30;53.90;;;;;;5013441;28;20416;-72
2023/08/11 02:24:50;;;;;;;2.60;2.40;;;23.30;53.80;;;;;;5013457;28;20470;-71
2023/08/11 02:27:17;;;;;;;2.57;2.37;;;23.30;53.80;;;;;;5013374;28;20660;-72
2023/08/11 02:29:43;;;;;;;3.00;2.60;;;23.30;53.80;;;;;;5013607;28;20674;-72
2023/08/11 02:32:09;;;;;;;2.67;2.47;;;23.30;53.80;;;;;;5013320;28;20489;-72
2023/08/11 02:34:36;;;;;;;3.20;2.37;;;23.30;53.90;;;;;;4995987;28;20483;-71
2023/08/11 02:37:02;;;;;;;2.90;2.70;;;23.30;53.80;;;;;;5013175;28;20241;-71
2023/08/11 02:39:28;;;;;;;3.23;2.83;;;23.30;53.80;;;;;;5013056;28;20971;-72
2023/08/11 02:41:54;;;;;;;3.10;2.70;;;23.30;53.80;;;;;;5013205;28;20391;-72
2023/08/11 02:44:19;;;;;;;2.60;2.40;;;23.30;53.80;;;;;;5013096;28;20172;-71
2023/08/11 02:46:45;;;;;;;4.00;2.60;;;23.30;53.80;;;;;;5013032;28;20424;-71
2023/08/11 02:49:12;;;;;;;3.10;2.73;;;23.30;53.80;;;;;;5012989;28;20196;-71
2023/08/11 02:51:37;;;;;;;5.30;2.50;;;23.30;53.90;;;;;;5012981;28;20415;-71
2023/08/11 02:54:04;;;;;;;2.43;2.23;;;23.30;53.80;;;;;;5012290;28;20692;-72
2023/08/11 02:56:29;;;;;;;2.93;2.50;;;23.30;53.80;;;;;;5012907;28;20222;-71
2023/08/11 02:58:56;;;;;;;2.60;2.40;;;23.30;53.90;;;;;;5012816;28;20415;-71
2023/08/11 03:01:23;;;;;;;2.30;2.10;;;23.30;54.40;;;;;;5012857;28;20172;-71
2023/08/11 03:03:49;;;;;;;2.83;2.57;;;23.30;53.80;;;;;;5012801;28;20760;-72
2023/08/11 03:06:14;;;;;;;2.87;2.67;;;23.30;53.80;;;;;;5012682;28;20422;-71
2023/08/11 03:08:40;;;;;;;2.80;2.40;;;23.30;53.80;;;;;;5012925;28;20191;-72
2023/08/11 03:11:06;;;;;;;3.03;2.73;;;23.30;53.80;;;;;;5012571;28;20200;-71
2023/08/11 03:13:32;;;;;;;2.80;2.60;;;23.30;53.90;;;;;;5012498;28;20788;-72
2023/08/11 03:15:58;;;;;;;2.90;2.53;;;23.30;53.90;;;;;;5012600;28;20219;-71
2023/08/11 03:18:24;;;;;;;2.57;2.37;;;23.30;53.90;;;;;;5012554;28;20707;-71
2023/08/11 03:20:52;;;;;;;2.43;2.23;;;23.30;53.80;;;;;;5012384;28;20438;-72
2023/08/11 03:23:18;;;;;;;2.70;2.50;;;23.30;53.80;;;;;;4994822;28;20422;-72
2023/08/11 03:25:43;;;;;;;3.13;2.47;;;23.30;53.80;;;;;;5012399;28;20419;-72
2023/08/11 03:28:09;;;;;;;2.77;2.43;;;23.30;53.80;;;;;;5012363;28;20180;-70
2023/08/11 03:30:35;;;;;;;2.90;2.53;;;23.30;53.90;;;;;;5012264;28;20238;-72
2023/08/11 03:33:01;;;;;;;2.40;2.20;;;23.30;53.80;;;;;;5012216;28;20458;-72
2023/08/11 03:35:26;;;;;;;3.37;2.60;;;23.30;53.90;;;;;;4994845;28;20305;-72
2023/08/11 03:37:52;;;;;;;2.57;2.37;;;23.30;53.80;;;;;;5012302;28;20187;-72
2023/08/11 03:40:17;;;;;;;2.53;2.33;;;23.30;53.90;;;;;;5012075;28;20579;-72
2023/08/11 03:42:43;;;;;;;2.27;2.07;;;23.30;53.90;;;;;;5012230;28;20183;-72
2023/08/11 03:45:14;;;;;;;3.10;2.67;;;23.30;53.80;;;;;;5012203;28;20636;-72
2023/08/11 03:47:41;;;;;;;2.90;2.70;;;23.30;53.90;;;;;;5012200;28;20152;-72
2023/08/11 03:50:07;;;;;;;3.07;2.77;;;23.30;53.90;;;;;;5012103;28;20940;-72
2023/08/11 03:52:34;;;;;;;2.63;2.43;;;23.30;53.90;;;;;;5012073;28;20760;-72
2023/08/11 03:54:59;;;;;;;2.80;2.50;;;23.30;53.90;;;;;;5012127;28;20770;-71
2023/08/11 03:57:28;;;;;;;2.70;2.47;;;23.30;53.90;;;;;;5012293;28;20422;-72
2023/08/11 03:59:54;;;;;;;2.73;2.53;;;23.30;53.90;;;;;;5011971;28;20192;-71
2023/08/11 04:02:19;;;;;;;3.00;2.17;;;23.20;53.80;;;;;;5012028;28;20453;-72
2023/08/11 04:04:45;;;;;;;2.53;2.33;;;23.20;53.80;;;;;;5012696;28;20517;-72
2023/08/11 04:07:11;;;;;;;2.40;2.20;;;23.30;53.90;;;;;;5016059;28;20172;-72
2023/08/11 04:09:41;;;;;;;2.40;2.20;;;23.20;53.80;;;;;;5015879;28;20815;-72
2023/08/11 04:12:07;;;;;;;2.60;2.40;;;23.20;53.80;;;;;;5015908;28;20439;-72
2023/08/11 04:14:32;;;;;;;2.83;2.57;;;23.20;53.80;;;;;;5015724;28;20482;-72
2023/08/11 04:16:58;;;;;;;4.67;2.40;;;23.20;53.80;;;;;;5016118;28;20227;-72
2023/08/11 04:19:24;;;;;;;2.77;2.57;;;23.20;53.80;;;;;;5015779;28;20235;-72
2023/08/11 04:21:49;;;;;;;2.83;2.50;;;23.20;53.80;;;;;;5015722;28;20171;-72
2023/08/11 04:24:17;;;;;;;3.13;2.30;;;23.20;54.40;;;;;;5015715;28;20727;-71
2023/08/11 04:26:43;;;;;;;2.77;2.50;;;23.20;53.80;;;;;;5015700;28;20206;-72
2023/08/11 04:29:09;;;;;;;3.23;2.47;;;23.20;53.80;;;;;;5015552;28;20475;-71
2023/08/11 04:31:35;;;;;;;2.10;1.97;;;23.20;53.80;;;;;;5015514;28;20494;-71
2023/08/11 04:34:00;;;;;;;2.60;2.40;;;23.20;53.80;;;;;;5015453;28;20339;-72
2023/08/11 04:36:27;;;;;;;3.67;2.23;;;23.20;53.80;;;;;;5015427;28;20195;-72
2023/08/11 04:38:53;;;;;;;2.17;2.03;;;23.20;53.80;;;;;;5015298;28;20655;-71
2023/08/11 04:41:19;;;;;;;2.03;1.87;;;23.20;53.80;;;;;;5015270;28;20517;-72
2023/08/11 04:43:44;;;;;;;2.83;2.10;;;23.20;53.80;;;;;;5015313;28;20173;-71
2023/08/11 04:46:10;;;;;;;2.60;2.40;;;23.30;53.90;;;;;;5015300;28;20759;-72
2023/08/11 04:48:35;;;;;;;2.17;2.07;;;23.20;53.80;;;;;;5015205;28;20238;-72
2023/08/11 04:51:01;;;;;;;2.30;2.10;;;23.30;53.90;;;;;;5015156;28;20188;-72
2023/08/11 04:53:27;;;;;;;2.53;2.33;;;23.30;53.90;;;;;;4997464;28;20205;-71
2023/08/11 04:55:52;;;;;;;2.50;2.30;;;23.30;53.90;;;;;;5015107;28;20638;-72
2023/08/11 04:58:19;;;;;;;2.40;2.20;;;23.30;53.90;;;;;;5015031;28;20526;-72
2023/08/11 05:00:44;;;;;;;2.77;2.57;;;23.30;53.90;;;;;;5015230;28;20192;-72
2023/08/11 05:03:10;;;;;;;2.43;2.23;;;23.30;53.90;;;;;;5014956;28;20425;-71
2023/08/11 05:05:35;;;;;;;2.57;2.37;;;23.30;53.90;;;;;;5014940;28;20176;-72
2023/08/11 05:08:01;;;;;;;2.47;2.10;;;23.30;53.90;;;;;;5014906;28;20178;-71
2023/08/11 05:10:27;;;;;;;3.37;2.83;;;23.30;54.40;;;;;;5014776;28;20697;-71
2023/08/11 05:12:53;;;;;;;2.30;2.10;;;23.30;53.90;;;;;;5014720;28;20415;-72
2023/08/11 05:15:18;;;;;;;2.53;2.33;;;23.30;53.90;;;;;;5014798;28;20179;-71
2023/08/11 05:17:45;;;;;;;2.27;2.07;;;23.30;53.90;;;;;;4996465;28;20587;-71
2023/08/11 05:20:11;;;;;;;2.43;2.20;;;23.30;53.90;;;;;;5014892;28;20703;-72
2023/08/11 05:22:37;;;;;;;2.53;1.97;;;23.30;53.90;;;;;;5014638;28;20441;-71
2023/08/11 05:25:04;;;;;;;2.40;2.20;;;23.30;53.90;;;;;;5014564;28;20396;-71
2023/08/11 05:27:30;;;;;;;2.47;2.27;;;23.30;53.90;;;;;;5014497;28;20406;-71
2023/08/11 05:29:56;;;;;;;2.70;2.20;;;23.30;53.90;;;;;;5014357;28;20435;-71
2023/08/11 05:32:23;;;;;;;2.20;2.00;;;23.30;53.90;;;;;;5014419;28;20469;-72
2023/08/11 05:34:49;;;;;;;2.40;2.20;;;23.30;53.90;;;;;;5014318;28;20883;-72
2023/08/11 05:37:15;;;;;;;2.30;2.10;;;23.30;53.90;;;;;;5014365;28;20404;-71
2023/08/11 05:39:42;;;;;;;2.43;2.13;;;23.30;53.90;;;;;;5014109;28;20458;-72
2023/08/11 05:42:08;;;;;;;2.90;2.37;;;23.30;53.90;;;;;;5014495;28;20180;-72
2023/08/11 05:44:34;;;;;;;4.23;2.57;;;23.30;53.90;;;;;;4996637;28;20425;-72
2023/08/11 05:46:59;;;;;;;2.17;1.97;;;23.30;53.90;;;;;;5014173;28;20172;-72
2023/08/11 05:49:25;;;;;;;2.33;2.13;;;23.30;53.90;;;;;;5014326;28;20208;-72
2023/08/11 05:51:50;;;;;;;2.80;2.07;;;23.30;53.90;;;;;;5014002;28;20217;-71
2023/08/11 05:54:16;;;;;;;3.00;2.00;;;23.30;53.90;;;;;;5013906;28;20279;-72
2023/08/11 05:56:42;;;;;;;2.20;2.00;;;23.30;53.90;;;;;;5013936;28;20219;-71
2023/08/11 05:59:07;;;;;;;2.30;2.10;;;23.30;53.90;;;;;;5013815;28;20223;-71
2023/08/11 06:01:34;;;;;;;3.83;2.70;;;23.30;53.90;;;;;;4996075;28;20760;-72
2023/08/11 06:03:59;;;;;;;2.43;2.10;;;23.30;53.90;;;;;;5013742;28;20183;-71
2023/08/11 06:06:26;;;;;;;2.17;1.87;;;23.30;53.80;;;;;;5013610;28;20411;-70
2023/08/11 06:08:54;;;;;;;2.20;2.00;;;23.30;53.80;;;;;;5013547;28;20181;-70
2023/08/11 06:11:20;;;;;;;2.80;2.33;;;23.30;53.80;;;;;;4996301;28;20408;-72
2023/08/11 06:13:46;;;;;;;2.00;1.90;;;23.30;53.80;;;;;;5013637;28;20451;-72
2023/08/11 06:16:11;;;;;;;2.17;1.97;;;23.30;53.80;;;;;;5019424;28;20415;-71
2023/08/11 06:18:37;;;;;;;2.40;2.10;;;23.30;53.80;;;;;;5031127;28;20446;-72
2023/08/11 06:21:04;;;;;;;2.30;2.10;;;23.30;53.80;;;;;;5033250;28;20322;-71
2023/08/11 06:23:30;;;;;;;3.00;2.27;;;23.30;53.80;;;;;;5033226;28;20221;-71
2023/08/11 06:25:56;;;;;;;2.93;2.63;;;23.30;53.80;;;;;;5033146;28;20410;-71
2023/08/11 06:28:21;;;;;;;2.03;1.70;;;23.30;53.70;;;;;;5032056;28;20421;-71
2023/08/11 06:30:47;;;;;;;2.60;1.77;;;23.30;53.70;;;;;;5032965;28;20680;-71
2023/08/11 06:33:13;;;;;;;2.77;2.37;;;23.30;53.80;;;;;;5032877;28;20580;-72
2023/08/11 06:35:38;;;;;;;2.07;1.87;;;23.30;53.70;;;;;;5033078;28;20172;-71
2023/08/11 06:38:04;;;;;;;2.33;2.13;;;23.30;53.80;;;;;;5014896;28;20188;-71
2023/08/11 06:40:33;;;;;;;2.53;2.33;;;23.30;53.70;;;;;;5011082;28;20211;-71
2023/08/11 06:42:58;;;;;;;2.87;1.97;;;23.30;53.80;;;;;;5011186;28;20168;-71
2023/08/11 06:45:24;;;;;;;2.30;2.10;;;23.30;53.80;;;;;;5011182;28;20441;-72
2023/08/11 06:47:50;;;;;;;2.70;2.23;;;23.30;53.80;;;;;;5011061;28;20180;-72
2023/08/11 06:50:22;;;;;;;2.50;2.13;;;23.30;53.80;;;;;;5068544;28;20535;-71
2023/08/11 06:52:48;;;;;;;2.13;1.93;;;23.30;53.80;;;;;;5069384;28;20455;-71
2023/08/11 06:55:13;;;;;;;1.83;1.73;;;23.30;53.80;;;;;;5069160;28;20178;-71
2023/08/11 06:57:39;;;;;;;2.20;1.80;;;23.30;53.80;;;;;;5069332;28;20443;-72
2023/08/11 07:00:07;;;;;;;2.30;1.67;;;23.30;53.80;;;;;;5069329;28;20201;-71
2023/08/11 07:02:33;;;;;;;1.90;1.80;;;23.30;53.80;;;;;;5068960;28;20174;-71
2023/08/11 07:04:59;;;;;;;2.60;2.40;;;23.30;53.80;;;;;;5068894;28;20397;-71
2023/08/11 07:07:24;;;;;;;2.93;2.10;;;23.30;53.90;;;;;;5067037;28;20747;-71
2023/08/11 07:09:50;;;;;;;3.33;2.53;;;23.30;53.80;;;;;;5068538;28;20281;-71
2023/08/11 07:12:15;;;;;;;2.63;2.43;;;23.30;53.80;;;;;;5068735;28;20166;-72
2023/08/11 07:14:42;;;;;;;3.03;2.60;;;23.30;53.80;;;;;;5067168;28;20182;-72
2023/08/11 07:17:08;;;;;;;2.63;2.43;;;23.30;53.80;;;;;;5068951;28;20182;-71
2023/08/11 07:19:33;;;;;;;3.33;2.60;;;23.30;53.80;;;;;;5068456;28;20856;-72
2023/08/11 07:21:59;;;;;;;3.60;3.00;;;23.30;53.70;;;;;;5068579;28;20655;-72
2023/08/11 07:24:25;;;;;;;5.23;2.90;;;23.30;53.70;;;;;;5068397;28;20174;-72
2023/08/11 07:26:50;;;;;;;3.53;3.20;;;23.30;53.70;;;;;;5068361;28;20175;-72
2023/08/11 07:29:16;;;;;;;3.80;3.27;;;23.30;53.70;;;;;;5068107;28;20241;-70
2023/08/11 07:31:43;;;;;;;3.33;2.87;;;23.30;53.70;;;;;;5067010;28;20178;-71
2023/08/11 07:34:08;;;;;;;3.73;2.50;;;23.30;53.70;;;;;;5068100;28;20170;-72
2023/08/11 07:36:34;;;;;;;3.43;3.13;;;23.30;53.70;;;;;;5068201;28;20432;-70
2023/08/11 07:38:59;;;;;;;2.50;2.30;;;23.30;53.70;;;;;;5068396;28;20178;-70
2023/08/11 07:41:25;;;;;;;2.80;2.60;;;23.30;53.80;;;;;;5067392;28;20178;-70
2023/08/11 07:43:51;;;;;;;3.30;2.30;;;23.30;53.80;;;;;;5068643;28;20167;-69
2023/08/11 07:46:16;;;;;;;2.97;2.50;;;23.30;53.80;;;;;;5068245;28;20197;-70
2023/08/11 07:48:42;;;;;;;2.67;2.47;;;23.30;53.80;;;;;;5067013;28;20209;-70
2023/08/11 07:51:08;;;;;;;4.27;2.70;;;23.30;53.80;;;;;;5068032;28;20186;-70
2023/08/11 07:53:36;;;;;;;2.60;2.40;;;23.30;53.80;;;;;;5067336;28;20262;-70
2023/08/11 07:56:01;;;;;;;3.23;2.93;;;23.30;53.70;;;;;;5065376;28;20415;-69
2023/08/11 07:58:27;;;;;;;2.90;2.70;;;23.30;53.80;;;;;;5066660;28;20507;-69
2023/08/11 08:00:52;;;;;;;3.70;2.70;;;23.40;53.80;;;;;;5059566;28;20199;-69
2023/08/11 08:03:18;;;;;;;2.70;2.50;;;23.40;53.80;;;;;;5054610;28;20206;-70
2023/08/11 08:05:44;;;;;;;2.70;2.30;;;23.40;53.80;;;;;;5054558;28;20258;-70
2023/08/11 08:08:09;;;;;;;3.07;2.30;;;23.40;53.70;;;;;;5054521;28;20171;-70
2023/08/11 08:10:35;;;;;;;2.90;2.50;;;23.40;53.70;;;;;;5054358;28;20715;-69
2023/08/11 08:13:00;;;;;;;2.83;2.63;;;23.40;54.30;;;;;;5054507;28;20548;-70
2023/08/11 08:15:28;;;;;;;2.63;2.43;;;23.40;53.70;;;;;;5054400;28;20163;-70
2023/08/11 08:17:54;;;;;;;2.77;2.50;;;23.40;53.70;;;;;;5054392;28;20170;-71
2023/08/11 08:20:20;;;;;;;2.30;2.03;;;23.40;53.70;;;;;;5054158;28;20800;-69
2023/08/11 08:22:46;;;;;;;2.53;2.33;;;23.40;53.70;;;;;;5054154;28;20449;-70
2023/08/11 08:25:12;;;;;;;4.30;2.53;;;23.40;53.70;;;;;;5054189;28;20460;-71
2023/08/11 08:27:39;;;;;;;2.97;2.70;;;23.40;53.70;;;;;;5054095;28;20553;-70
2023/08/11 08:30:06;;;;;;;3.50;2.17;;;23.40;53.70;;;;;;5053852;28;20465;-70
2023/08/11 08:32:33;;;;;;;2.67;2.43;;;23.50;53.70;;;;;;5053971;28;20914;-69
2023/08/11 08:34:58;;;;;;;2.60;2.40;;;23.50;53.70;;;;;;5052637;28;20413;-69
2023/08/11 08:37:24;;;;;;;2.63;2.43;;;23.40;53.70;;;;;;5053932;28;20920;-71
2023/08/11 08:39:51;;;;;;;2.43;2.23;;;23.50;53.80;;;;;;5052454;28;20575;-70
2023/08/11 08:42:18;;;;;;;2.37;2.17;;;23.50;53.80;;;;;;5053672;28;20495;-71
2023/08/11 08:44:47;;;;;;;2.93;2.40;;;23.50;53.70;;;;;;5053859;28;20560;-70
2023/08/11 08:47:12;;;;;;;2.60;2.40;;;23.50;53.70;;;;;;5053818;28;20758;-70
2023/08/11 08:49:39;;;;;;;2.57;2.37;;;23.50;54.30;;;;;;5053496;28;20476;-70
2023/08/11 08:52:06;;;;;;;2.60;2.40;;;23.50;53.70;;;;;;5053802;28;20250;-70
2023/08/11 08:54:32;;;;;;;2.57;2.37;;;23.50;53.70;;;;;;5054409;28;20829;-69
2023/08/11 08:56:59;;;;;;;2.73;2.40;;;23.50;53.70;;;;;;5053958;28;20409;-70
2023/08/11 08:59:25;;;;;;;2.97;2.30;;;23.50;53.70;;;;;;5052499;28;20437;-70
2023/08/11 09:01:51;;;;;;;2.97;2.43;;;23.50;53.70;;;;;;5053875;28;20416;-71
2023/08/11 09:04:20;;;;;;;3.00;2.17;;;23.50;53.70;;;;;;5054346;28;20179;-69
2023/08/11 09:06:47;;;;;;;2.50;2.30;;;23.50;53.70;;;;;;5053719;28;20410;-70
2023/08/11 09:09:12;;;;;;;2.63;2.27;;;23.60;53.80;;;;;;5052566;28;20457;-70
2023/08/11 09:11:39;;;;;;;2.50;2.30;;;23.60;53.80;;;;;;5052859;28;20555;-70
2023/08/11 09:14:06;;;;;;;2.70;2.50;;;23.60;53.80;;;;;;5053457;28;20171;-70
2023/08/11 09:16:37;;;;;;;2.43;2.23;;;23.60;53.80;;;;;;5053404;28;20409;-71
2023/08/11 09:19:04;;;;;;;2.30;2.10;;;23.60;53.80;;;;;;5052125;28;20426;-70
2023/08/11 09:21:31;;;;;;;4.57;2.60;;;23.60;53.80;;;;;;5042815;28;20445;-70
2023/08/11 09:23:57;;;;;;;3.30;2.13;;;23.60;53.80;;;;;;5033421;28;20578;-70
2023/08/11 09:26:24;;;;;;;3.20;2.13;;;23.60;53.80;;;;;;5034043;28;20517;-70
2023/08/11 09:28:50;;;;;;;2.63;2.40;;;23.60;53.80;;;;;;5053398;28;20203;-69
2023/08/11 09:31:24;;;;;;;3.00;2.20;;;23.60;53.80;;;;;;5051578;28;20498;-69
2023/08/11 09:33:50;;;;;;;2.30;2.07;;;23.60;53.90;;;;;;5052915;28;20394;-70
2023/08/11 09:36:17;;;;;;;2.60;2.20;;;23.60;53.90;;;;;;5052840;28;20410;-69
2023/08/11 09:38:47;;;;;;;2.97;2.33;;;23.60;53.80;;;;;;5053063;28;20470;-70
2023/08/11 09:41:13;;;;;;;2.77;2.37;;;23.60;53.90;;;;;;5052791;28;20421;-70
2023/08/11 09:43:44;;;;;;;2.60;2.40;;;23.60;53.90;;;;;;5051783;28;20938;-70
2023/08/11 09:46:10;;;;;;;2.60;2.40;;;23.60;53.80;;;;;;5051591;28;20406;-69
2023/08/11 09:48:35;;;;;;;3.40;2.53;;;23.60;53.90;;;;;;5050372;28;20465;-70
2023/08/11 09:51:04;;;;;;;2.60;2.20;;;23.60;53.90;;;;;;5052472;28;20672;-69
2023/08/11 09:53:29;;;;;;;2.53;2.33;;;23.70;54.00;;;;;;5051660;28;20171;-70
2023/08/11 09:55:56;;;;;;;3.17;2.37;;;23.60;53.90;;;;;;5053007;28;20544;-69
2023/08/11 09:58:26;;;;;;;2.30;2.10;;;23.70;54.00;;;;;;5052915;28;20416;-69
2023/08/11 10:00:54;;;;;;;2.63;2.40;;;23.70;54.00;;;;;;5052635;28;20441;-69
2023/08/11 10:03:28;;;;;;;2.33;2.00;;;23.70;54.00;;;;;;5051350;28;20431;-69
2023/08/11 10:05:57;;;;;;;2.40;2.20;;;23.70;54.00;;;;;;5053016;28;20408;-70
2023/08/11 10:08:27;;;;;;;2.60;2.37;;;23.70;54.00;;;;;;5052322;28;20455;-70
2023/08/11 10:10:53;;;;;;;3.53;2.13;;;23.70;54.00;;;;;;5052274;28;20441;-71
2023/08/11 10:13:23;;;;;;;2.70;2.50;;;23.70;54.00;;;;;;5052215;28;20940;-70
2023/08/11 10:15:50;;;;;;;3.60;2.40;;;23.70;54.00;;;;;;5052218;28;20199;-70
2023/08/11 10:18:16;;;;;;;2.40;2.10;;;23.70;54.00;;;;;;5052428;28;20446;-70
2023/08/11 10:20:42;;;;;;;3.43;2.43;;;23.70;54.00;;;;;;5052301;28;20464;-70
2023/08/11 10:23:08;;;;;;;3.83;2.20;;;23.70;54.00;;;;;;5051794;28;20964;-70
2023/08/11 10:25:35;;;;;;;2.37;2.00;;;23.70;54.00;;;;;;5052065;28;20177;-70
2023/08/11 10:28:02;;;;;;;2.30;2.10;;;23.70;54.00;;;;;;5051937;28;20496;-70
2023/08/11 10:30:27;;;;;;;2.33;2.13;;;23.70;54.00;;;;;;5051896;28;20452;-70
2023/08/11 10:33:04;;;;;;;2.67;2.47;;;23.80;54.00;;;;;;5051908;28;20800;-71
2023/08/11 10:35:51;;;;;;;3.10;2.80;;;23.80;54.10;;;;;;5050737;28;20868;-70
2023/08/11 10:38:25;;;;;;;2.60;2.40;;;23.70;54.00;;;;;;5051917;28;20406;-70
2023/08/11 10:40:58;;;;;;;2.27;2.07;;;23.80;54.10;;;;;;5051824;28;20439;-70
2023/08/11 10:43:33;;;;;;;2.67;2.47;;;23.70;54.00;;;;;;5051837;28;20749;-70
2023/08/11 10:46:19;;;;;;;2.53;2.27;;;23.80;54.10;;;;;;5051892;28;20400;-70
2023/08/11 10:48:44;;;;;;;2.97;2.53;;;23.80;54.10;;;;;;5051599;28;20468;-69
2023/08/11 10:51:29;;;;;;;2.50;2.20;;;23.80;54.10;;;;;;5051944;28;20486;-70
2023/08/11 10:54:09;;;;;;;2.10;1.90;;;23.80;54.10;;;;;;5050484;28;20260;-70
2023/08/11 10:56:40;;;;;;;2.20;2.00;;;23.80;54.10;;;;;;5051716;28;20913;-69
2023/08/11 10:59:14;;;;;;;2.47;2.27;;;23.80;54.10;;;;;;5051675;28;20403;-68
2023/08/11 11:01:48;;;;;;;2.57;2.37;;;23.80;54.10;;;;;;5049262;28;20467;-70
2023/08/11 11:04:15;;;;;;;2.50;2.30;;;23.80;54.10;;;;;;5051247;28;20769;-70
2023/08/11 11:06:43;;;;;;;4.73;2.37;;;23.80;54.10;;;;;;5051554;28;20409;-70
2023/08/11 11:09:10;;;;;;;2.83;2.20;;;23.80;54.10;;;;;;5049793;28;20453;-70
2023/08/11 11:11:39;;;;;;;2.70;2.47;;;23.80;54.10;;;;;;5049598;28;20944;-70
2023/08/11 11:14:06;;;;;;;2.57;2.37;;;23.80;54.10;;;;;;5049732;28;20548;-70
2023/08/11 11:16:32;;;;;;;2.27;2.07;;;23.80;54.00;;;;;;5049349;28;20432;-70
2023/08/11 11:19:00;;;;;;;2.30;2.10;;;23.80;54.00;;;;;;5049389;28;20637;-71
2023/08/11 11:21:25;;;;;;;3.00;2.30;;;23.80;54.10;;;;;;5049465;28;20414;-70
2023/08/11 11:23:51;;;;;;;3.47;2.47;;;23.80;54.00;;;;;;5049514;28;20408;-71
2023/08/11 11:26:25;;;;;;;3.03;2.40;;;23.80;54.00;;;;;;5050602;28;20190;-70
2023/08/11 11:28:51;;;;;;;2.60;2.40;;;23.90;54.10;;;;;;5051286;28;20599;-70
2023/08/11 11:31:18;;;;;;;3.83;2.10;;;23.80;54.00;;;;;;5051217;28;20775;-70
2023/08/11 11:33:45;;;;;;;3.43;2.37;;;23.80;54.00;;;;;;5051320;28;20410;-69
2023/08/11 11:36:12;;;;;;;2.10;1.90;;;23.90;54.10;;;;;;5053629;28;20409;-70
2023/08/11 11:38:39;;;;;;;2.23;2.03;;;23.90;54.10;;;;;;5055090;28;20413;-70
2023/08/11 11:41:12;;;;;;;3.50;2.30;;;23.80;54.00;;;;;;5054917;28;20441;-70
2023/08/11 11:43:39;;;;;;;2.50;1.90;;;23.90;54.10;;;;;;5055111;28;20913;-70
2023/08/11 11:46:15;;;;;;;2.60;2.30;;;23.80;54.00;;;;;;5055018;28;20838;-70
2023/08/11 11:48:50;;;;;;;3.53;2.17;;;23.90;54.10;;;;;;5054711;28;20527;-70
2023/08/11 11:51:17;;;;;;;2.60;2.37;;;23.90;54.10;;;;;;5054700;28;20421;-70
2023/08/11 11:53:44;;;;;;;3.20;2.37;;;23.80;54.00;;;;;;5054867;28;20405;-70
2023/08/11 11:56:14;;;;;;;2.70;2.13;;;23.90;54.10;;;;;;5054883;28;20413;-70
2023/08/11 11:58:40;;;;;;;2.67;2.47;;;23.90;54.10;;;;;;5054713;28;20393;-71
2023/08/11 12:01:17;;;;;;;2.80;2.37;;;23.90;54.10;;;;;;5054017;28;20779;-71
2023/08/11 12:03:47;;;;;;;2.07;1.93;;;23.90;54.10;;;;;;5053954;28;20401;-70
2023/08/11 12:06:14;;;;;;;3.33;2.33;;;23.90;54.60;;;;;;5054541;28;20409;-70
2023/08/11 12:08:41;;;;;;;2.10;1.90;;;23.90;54.10;;;;;;5053137;28;20485;-70
2023/08/11 12:11:10;;;;;;;2.20;2.00;;;23.90;54.10;;;;;;5054266;28;20491;-69
2023/08/11 12:13:39;;;;;;;2.37;2.07;;;23.90;54.10;;;;;;5054411;28;20409;-71
2023/08/11 12:16:07;;;;;;;3.30;2.30;;;23.90;54.10;;;;;;5054550;28;20436;-69
2023/08/11 12:18:33;;;;;;;2.47;2.03;;;23.90;54.10;;;;;;5054166;28;20456;-70
2023/08/11 12:20:59;;;;;;;2.30;2.10;;;23.90;54.10;;;;;;5054259;28;20486;-70
2023/08/11 12:23:26;;;;;;;2.17;2.03;;;23.90;54.10;;;;;;5054208;28;20925;-70
2023/08/11 12:25:52;;;;;;;3.83;1.83;;;23.90;54.10;;;;;;5054252;28;20416;-70
2023/08/11 12:28:18;;;;;;;2.20;2.00;;;23.90;54.00;;;;;;5054097;28;20409;-70
2023/08/11 12:30:44;;;;;;;2.20;2.00;;;23.90;54.10;;;;;;5053938;28;20202;-70
2023/08/11 12:33:09;;;;;;;3.30;2.37;;;23.90;54.10;;;;;;5054338;28;20500;-70
2023/08/11 12:35:35;;;;;;;3.50;2.23;;;23.90;54.00;;;;;;5054069;28;20242;-70
2023/08/11 12:38:01;;;;;;;3.03;2.03;;;23.90;54.10;;;;;;5053988;28;20175;-70
2023/08/11 12:40:28;;;;;;;1.93;1.73;;;24.00;54.10;;;;;;5053848;28;20191;-71
2023/08/11 12:42:54;;;;;;;2.60;2.40;;;23.90;54.00;;;;;;5053922;28;20182;-70
2023/08/11 12:45:20;;;;;;;2.60;2.40;;;23.90;54.00;;;;;;5052530;28;20476;-69
2023/08/11 12:47:46;;;;;;;2.33;2.13;;;23.90;54.00;;;;;;5053711;28;21032;-69